Terminal Aerodrome Forecast
Issued by NWS Paducah, KY

Home | Current Version | Previous Version | Graphics & Text | Print | Product List | Glossary On
Versions: 1 2 3 4 5 6 7 8 9 10 11 12 13 14 15 16
000
FTUS43 KPAH 271100 AAA
TAFPAH
TAF AMD
KPAH 271113Z 2711/2806 00000KT 5SM BR SKC
      TEMPO 2711/2713 1SM BR
     FM271400 VRB03KT P6SM SCT060
     FM280100 00000KT P6SM SCT250=

USA.gov is the U.S. government's official web portal to all federal, state and local government web resources and services.